createdAt,value
2019-05-05T00:02:14.494Z,97266.27
2019-05-05T00:04:57.678Z,97266.77
2019-05-05T00:07:34.923Z,97255.85
2019-05-05T00:10:11.614Z,97257.69
2019-05-05T00:13:15.664Z,97252.64
2019-05-05T00:16:16.804Z,97247.74
2019-05-05T00:18:54.137Z,97234.36
2019-05-05T00:21:27.191Z,97236.61
2019-05-05T00:24:01.207Z,97231.23
2019-05-05T00:26:35.762Z,97230.23
2019-05-05T00:29:09.505Z,97225.36
2019-05-05T00:31:45.413Z,97224.67
2019-05-05T00:34:18.989Z,97223.12
2019-05-05T00:36:52.589Z,97222.97
2019-05-05T00:39:26.377Z,97222.95
2019-05-05T00:42:00.144Z,97217.05
2019-05-05T00:44:35.235Z,97207.23
2019-05-05T00:47:26.964Z,97210.04
2019-05-05T00:50:00.899Z,97207.08
2019-05-05T00:52:35.224Z,97201.25
2019-05-05T00:55:09.467Z,97207.26
2019-05-05T00:57:45.372Z,97203.38
2019-05-05T01:00:45.174Z,97193.20
2019-05-05T01:03:20.402Z,97192.38
2019-05-05T01:06:05.275Z,97189.63
2019-05-05T01:08:38.555Z,97191.91
2019-05-05T01:11:14.491Z,97187.29
2019-05-05T01:13:47.360Z,97189.19
2019-05-05T01:16:21.024Z,97183.94
2019-05-05T01:18:55.378Z,97180.98
2019-05-05T01:21:28.571Z,97178.19
2019-05-05T01:24:02.089Z,97172.45
2019-05-05T01:26:35.726Z,97168.34
2019-05-05T01:29:10.821Z,97172.91
2019-05-05T01:31:45.256Z,97174.72
2019-05-05T01:34:30.547Z,97169.19
2019-05-05T01:37:09.719Z,97171.30
2019-05-05T01:39:54.221Z,97168.88
2019-05-05T01:42:28.411Z,97169.58
2019-05-05T01:45:01.615Z,97167.61
2019-05-05T01:47:35.004Z,97160.95
2019-05-05T01:50:20.435Z,97163.28
2019-05-05T01:52:45.117Z,97156.22
2019-05-05T01:55:19.132Z,97153.98
2019-05-05T01:57:54.351Z,97136.33
2019-05-05T02:00:27.801Z,97144.65
2019-05-05T02:03:01.372Z,97134.36
2019-05-05T02:05:35.006Z,97128.25
2019-05-05T02:08:08.363Z,97120.03
2019-05-05T02:10:42.164Z,97120.20
2019-05-05T02:13:16.143Z,97119.85
2019-05-05T02:15:49.646Z,97122.64
2019-05-05T02:18:25.215Z,97124.75
2019-05-05T02:21:08.802Z,97118.48
2019-05-05T02:23:42.804Z,97118.13
2019-05-05T02:26:16.471Z,97110.55
2019-05-05T02:28:56.757Z,97120.84
2019-05-05T02:31:51.990Z,97113.98
2019-05-05T02:34:26.146Z,97109.06
2019-05-05T02:36:59.738Z,97107.92
2019-05-05T02:39:35.266Z,97111.86
2019-05-05T02:42:08.105Z,97104.20
2019-05-05T02:44:41.859Z,97104.53
2019-05-05T02:47:27.938Z,97101.14
2019-05-05T02:50:06.175Z,97097.36
2019-05-05T02:52:41.547Z,97095.27
2019-05-05T02:55:17.133Z,97087.91
2019-05-05T02:57:51.925Z,97085.14
2019-05-05T03:00:43.663Z,97074.36
2019-05-05T03:03:17.088Z,97064.86
2019-05-05T03:05:50.659Z,97066.05
2019-05-05T03:08:25.197Z,97061.59
2019-05-05T03:10:59.459Z,97060.00
2019-05-05T03:13:35.380Z,97049.50
2019-05-05T03:16:19.624Z,97052.41
2019-05-05T03:18:54.517Z,97053.01
2019-05-05T03:21:28.394Z,97061.12
2019-05-05T03:24:03.741Z,97060.45
2019-05-05T03:26:37.796Z,97054.74
2019-05-05T03:29:15.619Z,97057.50
2019-05-05T03:31:49.586Z,97054.89
2019-05-05T03:34:24.118Z,97054.72
2019-05-05T03:36:57.969Z,97057.17
2019-05-05T03:39:34.124Z,97052.61
2019-05-05T03:42:33.843Z,97059.49
2019-05-05T03:45:29.586Z,97051.81
2019-05-05T03:48:04.612Z,97051.77
2019-05-05T03:50:38.082Z,97050.97
2019-05-05T03:53:13.864Z,97051.92
2019-05-05T03:55:47.324Z,97051.59
2019-05-05T03:58:21.002Z,97042.90
2019-05-05T04:01:50.596Z,97043.36
2019-05-05T04:04:25.992Z,97045.98
2019-05-05T04:06:59.719Z,97055.17
2019-05-05T04:09:34.603Z,97047.65
2019-05-05T04:12:07.495Z,97048.42
2019-05-05T04:14:43.962Z,97041.53
2019-05-05T04:17:39.581Z,97054.44
2019-05-05T04:20:33.596Z,97054.69
2019-05-05T04:23:06.346Z,97059.47
2019-05-05T04:25:40.117Z,97054.59
2019-05-05T04:28:13.601Z,97058.05
2019-05-05T04:30:47.479Z,97058.72
2019-05-05T04:33:23.649Z,97056.30
2019-05-05T04:35:57.079Z,97058.10
2019-05-05T04:38:30.444Z,97059.59
2019-05-05T04:41:04.044Z,97068.75
2019-05-05T04:43:37.464Z,97068.73
2019-05-05T04:46:10.893Z,97070.91
2019-05-05T04:48:54.297Z,97070.11
2019-05-05T04:51:44.772Z,97070.76
2019-05-05T04:54:18.831Z,97067.85
2019-05-05T04:56:54.004Z,97061.20
2019-05-05T04:59:27.122Z,97056.80
2019-05-05T05:02:04.331Z,97055.36
2019-05-05T05:04:45.220Z,97043.06
2019-05-05T05:07:18.981Z,97046.52
2019-05-05T05:09:54.030Z,97054.56
2019-05-05T05:12:27.274Z,97052.29
2019-05-05T05:15:00.968Z,97053.26
2019-05-05T05:17:44.293Z,97051.95
2019-05-05T05:20:18.921Z,97048.54
2019-05-05T05:22:51.944Z,97055.58
2019-05-05T05:25:25.896Z,97059.84
2019-05-05T05:27:59.616Z,97069.98
2019-05-05T05:30:34.701Z,97071.30
2019-05-05T05:33:09.436Z,97074.08
2019-05-05T05:35:44.157Z,97070.62
2019-05-05T05:38:18.062Z,97074.90
2019-05-05T05:40:59.476Z,97055.58
2019-05-05T05:43:43.975Z,97041.16
2019-05-05T05:46:30.664Z,97008.20
2019-05-05T05:49:28.576Z,96977.58
2019-05-05T05:52:13.451Z,96953.34
2019-05-05T05:54:37.647Z,96974.02
2019-05-05T05:57:13.557Z,96995.30
2019-05-05T05:59:46.321Z,96997.25
2019-05-05T06:02:20.177Z,97004.06
2019-05-05T06:04:53.922Z,97001.90
2019-05-05T06:07:29.502Z,96994.04
2019-05-05T06:10:05.178Z,96994.47
2019-05-05T06:12:39.252Z,96990.83
2019-05-05T06:15:14.237Z,96991.23
2019-05-05T06:17:57.059Z,96996.77
2019-05-05T06:20:31.413Z,97001.81
2019-05-05T06:23:05.609Z,97007.20
2019-05-05T06:25:39.427Z,97000.55
2019-05-05T06:28:14.505Z,96992.09
2019-05-05T06:30:48.062Z,96986.01
2019-05-05T06:33:23.923Z,96988.48
2019-05-05T06:35:59.014Z,97000.61
2019-05-05T06:38:34.354Z,96993.52
2019-05-05T06:41:39.449Z,96989.59
2019-05-05T06:44:33.781Z,97011.98
2019-05-05T06:47:13.990Z,97024.86
2019-05-05T06:49:47.895Z,96996.38
2019-05-05T06:52:24.724Z,96997.58
2019-05-05T06:54:57.859Z,97003.50
2019-05-05T06:57:34.214Z,96996.08
2019-05-05T07:00:08.047Z,97008.13
2019-05-05T07:02:41.822Z,97003.08
2019-05-05T07:05:16.092Z,96994.25
2019-05-05T07:07:50.369Z,96992.06
2019-05-05T07:10:30.165Z,96972.52
2019-05-05T07:13:05.235Z,96994.73
2019-05-05T07:15:39.708Z,96973.22
2019-05-05T07:18:14.613Z,96976.09
2019-05-05T07:20:48.945Z,96970.88
2019-05-05T07:23:25.643Z,96961.42
2019-05-05T07:25:59.700Z,96949.91
2019-05-05T07:28:35.515Z,96942.38
2019-05-05T07:31:11.037Z,96930.94
2019-05-05T07:33:45.107Z,96912.47
2019-05-05T07:36:39.389Z,96907.28
2019-05-05T07:39:15.049Z,96913.39
2019-05-05T07:41:49.112Z,96904.88
2019-05-05T07:44:29.057Z,96923.09
2019-05-05T07:46:58.962Z,96907.00
2019-05-05T07:49:33.643Z,96913.09
2019-05-05T07:52:08.002Z,96926.53
2019-05-05T07:54:43.559Z,96919.88
2019-05-05T07:57:18.599Z,96922.13
2019-05-05T07:59:53.966Z,96901.09
2019-05-05T08:02:49.250Z,96911.43
2019-05-05T08:05:24.634Z,96901.14
2019-05-05T08:08:06.519Z,96906.66
2019-05-05T08:10:43.930Z,96909.41
2019-05-05T08:13:26.228Z,96900.92
2019-05-05T08:16:04.263Z,96961.21
2019-05-05T08:19:18.516Z,96941.91
2019-05-05T08:21:55.317Z,96938.12
2019-05-05T08:25:07.855Z,96931.98
2019-05-05T08:28:04.418Z,96924.53
2019-05-05T08:31:14.448Z,96914.56
2019-05-05T08:33:52.170Z,96926.24
2019-05-05T08:36:26.183Z,96941.47
2019-05-05T08:39:04.372Z,96959.42
2019-05-05T08:41:38.988Z,96963.88
2019-05-05T08:44:17.763Z,96979.05
2019-05-05T08:46:53.741Z,96987.05
2019-05-05T08:49:29.397Z,96985.82
2019-05-05T08:52:04.016Z,96995.27
2019-05-05T08:54:39.089Z,96991.37
2019-05-05T08:57:17.351Z,96984.19
2019-05-05T08:59:56.077Z,97008.24
2019-05-05T09:02:33.273Z,96996.11
2019-05-05T09:05:07.042Z,96997.58
2019-05-05T09:07:41.165Z,97021.69
2019-05-05T09:10:16.956Z,97039.33
2019-05-05T09:12:51.592Z,97041.91
2019-05-05T09:15:26.424Z,97038.17
2019-05-05T09:18:01.223Z,97063.66
2019-05-05T09:20:36.584Z,97064.77
2019-05-05T09:23:10.802Z,97056.36
2019-05-05T09:26:04.348Z,97060.31
2019-05-05T09:28:53.976Z,97062.61
2019-05-05T09:31:28.191Z,97076.39
2019-05-05T09:34:04.610Z,97061.65
2019-05-05T09:36:38.857Z,97075.30
2019-05-05T09:39:13.938Z,97096.59
2019-05-05T09:41:49.821Z,97106.28
2019-05-05T09:44:24.228Z,97109.31
2019-05-05T09:47:00.245Z,97114.86
2019-05-05T09:49:35.482Z,97107.53
2019-05-05T09:52:10.911Z,97099.36
2019-05-05T09:54:46.083Z,97087.25
2019-05-05T09:57:21.257Z,97106.45
2019-05-05T10:00:10.717Z,97088.50
2019-05-05T10:02:46.232Z,97091.91
2019-05-05T10:05:23.588Z,97086.75
2019-05-05T10:07:58.088Z,97099.80
2019-05-05T10:10:33.728Z,97116.24
2019-05-05T10:13:08.651Z,97104.70
2019-05-05T10:15:44.368Z,97113.41
2019-05-05T10:18:19.640Z,97158.13
2019-05-05T10:20:54.717Z,97108.64
2019-05-05T10:23:34.187Z,97121.98
2019-05-05T10:26:12.215Z,97132.58
2019-05-05T10:28:47.417Z,97094.05
2019-05-05T10:31:24.028Z,97144.03
2019-05-05T10:34:04.397Z,97155.50
2019-05-05T10:36:40.200Z,97173.37
2019-05-05T10:39:23.612Z,97159.91
2019-05-05T10:41:59.280Z,97189.67
2019-05-05T10:44:40.390Z,97162.23
2019-05-05T10:47:14.888Z,97148.96
2019-05-05T10:49:49.384Z,97164.53
2019-05-05T10:52:24.422Z,97182.52
2019-05-05T10:54:59.035Z,97159.67
2019-05-05T10:57:34.879Z,97158.80
2019-05-05T11:00:13.170Z,97145.74
2019-05-05T11:02:47.205Z,97155.42
2019-05-05T11:05:23.559Z,97150.23
2019-05-05T11:07:58.304Z,97167.55
2019-05-05T11:10:39.421Z,97180.48
2019-05-05T11:13:13.813Z,97168.78
2019-05-05T11:15:48.428Z,97160.14
2019-05-05T11:18:23.765Z,97157.75
2019-05-05T11:20:59.056Z,97152.17
2019-05-05T11:23:44.741Z,97142.09
2019-05-05T11:26:14.413Z,97168.28
2019-05-05T11:28:50.648Z,97145.12
2019-05-05T11:31:25.497Z,97171.25
2019-05-05T11:34:14.076Z,97156.38
2019-05-05T11:37:06.686Z,97193.80
2019-05-05T11:39:41.787Z,97191.93
2019-05-05T11:42:17.151Z,97200.83
2019-05-05T11:44:52.224Z,97166.25
2019-05-05T11:47:27.413Z,97155.90
2019-05-05T11:50:06.638Z,97170.72
2019-05-05T11:52:44.324Z,97157.63
2019-05-05T11:55:18.588Z,97158.80
2019-05-05T11:57:57.762Z,97162.24
2019-05-05T12:00:34.699Z,97173.61
2019-05-05T12:03:11.773Z,97170.73
2019-05-05T12:05:47.676Z,97157.50
2019-05-05T12:08:24.368Z,97176.58
2019-05-05T12:11:00.649Z,97202.33
2019-05-05T12:13:36.133Z,97176.81
2019-05-05T12:16:34.464Z,97177.53
2019-05-05T12:19:16.120Z,97173.63
2019-05-05T12:21:54.567Z,97169.30
2019-05-05T12:24:33.985Z,97172.09
2019-05-05T12:27:24.470Z,97183.05
2019-05-05T12:30:15.154Z,97165.25
2019-05-05T12:32:50.526Z,97167.39
2019-05-05T12:35:26.891Z,97160.98
2019-05-05T12:38:03.859Z,97163.45
2019-05-05T12:40:40.830Z,97192.81
2019-05-05T12:43:16.940Z,97184.67
2019-05-05T12:46:00.693Z,97196.05
2019-05-05T12:48:48.220Z,97215.59
2019-05-05T12:51:27.196Z,97188.12
2019-05-05T12:54:05.512Z,97173.26
2019-05-05T12:56:40.887Z,97167.84
2019-05-05T12:59:29.301Z,97168.73
2019-05-05T13:02:15.726Z,97164.84
2019-05-05T13:04:53.860Z,97161.00
2019-05-05T13:07:36.085Z,97156.09
2019-05-05T13:10:25.641Z,97175.01
2019-05-05T13:13:16.240Z,97193.60
2019-05-05T13:15:53.709Z,97192.27
2019-05-05T13:18:29.905Z,97181.64
2019-05-05T13:21:34.658Z,97189.59
2019-05-05T13:24:34.799Z,97186.69
2019-05-05T13:27:31.266Z,97196.16
2019-05-05T13:30:20.360Z,97205.34
2019-05-05T13:32:58.270Z,97199.22
2019-05-05T13:35:34.124Z,97198.92
2019-05-05T13:38:10.773Z,97192.12
2019-05-05T13:40:48.774Z,97205.20
2019-05-05T13:43:30.491Z,97193.94
2019-05-05T13:46:21.141Z,97198.59
2019-05-05T13:48:58.567Z,97210.11
2019-05-05T13:51:34.888Z,97191.04
2019-05-05T13:54:11.030Z,97191.09
2019-05-05T13:56:46.271Z,97195.19
2019-05-05T13:59:21.272Z,97190.43
2019-05-05T14:01:55.374Z,97185.84
2019-05-05T14:04:32.066Z,97185.54
2019-05-05T14:07:06.888Z,97173.87
2019-05-05T14:09:44.205Z,97180.12
2019-05-05T14:12:18.882Z,97176.41
2019-05-05T14:14:58.510Z,97173.87
2019-05-05T14:17:34.170Z,97159.73
2019-05-05T14:20:12.129Z,97157.98
2019-05-05T14:22:47.062Z,97165.92
2019-05-05T14:25:27.043Z,97154.64
2019-05-05T14:28:03.897Z,97165.59
2019-05-05T14:30:58.031Z,97147.61
2019-05-05T14:33:51.483Z,97157.47
2019-05-05T14:36:44.154Z,97149.13
2019-05-05T14:39:23.872Z,97144.75
2019-05-05T14:41:59.547Z,97143.69
2019-05-05T14:44:35.455Z,97141.81
2019-05-05T14:47:13.665Z,97136.03
2019-05-05T14:49:49.051Z,97132.92
2019-05-05T14:52:25.114Z,97128.71
2019-05-05T14:55:01.138Z,97123.58
2019-05-05T14:57:37.266Z,97119.17
2019-05-05T15:00:17.280Z,97121.19
2019-05-05T15:02:54.841Z,97111.59
2019-05-05T15:05:55.402Z,97108.64
2019-05-05T15:08:54.549Z,97106.08
2019-05-05T15:11:44.428Z,97104.84
2019-05-05T15:14:24.328Z,97112.13
2019-05-05T15:17:03.797Z,97112.98
2019-05-05T15:19:43.463Z,97110.04
2019-05-05T15:22:20.646Z,97114.63
2019-05-05T15:24:57.718Z,97113.98
2019-05-05T15:27:34.841Z,97110.58
2019-05-05T15:30:10.056Z,97115.42
2019-05-05T15:32:48.263Z,97115.61
2019-05-05T15:35:25.937Z,97114.78
2019-05-05T15:38:01.270Z,97116.05
2019-05-05T15:40:38.549Z,97112.09
2019-05-05T15:43:24.390Z,97113.02
2019-05-05T15:46:00.350Z,97115.75
2019-05-05T15:48:36.849Z,97111.92
2019-05-05T15:51:14.473Z,97118.41
2019-05-05T15:53:50.388Z,97128.06
2019-05-05T15:56:27.837Z,97134.58
2019-05-05T15:59:06.760Z,97135.06
2019-05-05T16:01:43.432Z,97145.81
2019-05-05T16:04:23.535Z,97162.86
2019-05-05T16:07:04.448Z,97168.45
2019-05-05T16:09:41.820Z,97174.20
2019-05-05T16:12:33.482Z,97181.77
2019-05-05T16:15:18.608Z,97192.64
2019-05-05T16:18:22.689Z,97191.09
2019-05-05T16:21:09.501Z,97192.09
2019-05-05T16:23:51.166Z,97187.94
2019-05-05T16:26:29.328Z,97177.99
2019-05-05T16:29:04.263Z,97189.22
2019-05-05T16:31:46.293Z,97198.59
2019-05-05T16:34:23.393Z,97205.17
2019-05-05T16:36:59.583Z,97205.04
2019-05-05T16:39:36.889Z,97206.67
2019-05-05T16:42:13.563Z,97217.76
2019-05-05T16:44:51.398Z,97216.91
2019-05-05T16:47:26.618Z,97224.42
2019-05-05T16:50:04.188Z,97234.87
2019-05-05T16:52:49.627Z,97236.78
2019-05-05T16:55:34.568Z,97244.86
2019-05-05T16:58:13.896Z,97246.66
2019-05-05T17:00:50.384Z,97253.27
2019-05-05T17:03:26.913Z,97253.16
2019-05-05T17:06:05.963Z,97255.35
2019-05-05T17:08:44.422Z,97253.55
2019-05-05T17:11:24.576Z,97252.75
2019-05-05T17:14:23.448Z,97251.69
2019-05-05T17:17:19.151Z,97260.69
2019-05-05T17:20:04.438Z,97258.09
2019-05-05T17:23:15.492Z,97259.84
2019-05-05T17:25:54.109Z,97260.06
2019-05-05T17:28:29.811Z,97263.27
2019-05-05T17:31:07.847Z,97262.02
2019-05-05T17:33:44.185Z,97268.86
2019-05-05T17:36:19.178Z,97270.61
2019-05-05T17:38:54.490Z,97273.54
2019-05-05T17:41:47.818Z,97275.90
2019-05-05T17:44:58.130Z,97279.70
2019-05-05T17:47:46.280Z,97280.64
2019-05-05T17:50:40.415Z,97277.25
2019-05-05T17:53:50.835Z,97276.32
2019-05-05T17:56:37.488Z,97281.85
2019-05-05T17:59:17.763Z,97293.91
2019-05-05T18:01:54.473Z,97294.42
2019-05-05T18:04:30.820Z,97300.09
2019-05-05T18:07:21.339Z,97300.56
2019-05-05T18:10:00.828Z,97307.42
2019-05-05T18:12:49.686Z,97305.76
2019-05-05T18:15:43.466Z,97306.59
2019-05-05T18:18:23.447Z,97313.83
2019-05-05T18:21:03.497Z,97315.03
2019-05-05T18:23:43.841Z,97329.09
2019-05-05T18:26:21.295Z,97330.30
2019-05-05T18:28:56.494Z,97338.92
2019-05-05T18:31:35.063Z,97346.72
2019-05-05T18:34:13.370Z,97346.36
2019-05-05T18:36:47.895Z,97347.66
2019-05-05T18:39:24.799Z,97349.81
2019-05-05T18:42:13.804Z,97348.19
2019-05-05T18:44:51.459Z,97348.19
2019-05-05T18:47:26.720Z,97356.84
2019-05-05T18:50:03.997Z,97363.70
2019-05-05T18:52:38.319Z,97370.32
2019-05-05T18:55:16.496Z,97376.58
2019-05-05T18:57:54.662Z,97383.53
2019-05-05T19:00:54.501Z,97388.39
2019-05-05T19:03:34.302Z,97396.52
2019-05-05T19:06:30.178Z,97409.98
2019-05-05T19:09:07.478Z,97418.82
2019-05-05T19:11:43.641Z,97426.83
2019-05-05T19:14:18.862Z,97429.80
2019-05-05T19:16:55.522Z,97429.53
2019-05-05T19:19:30.463Z,97431.20
2019-05-05T19:22:11.131Z,97443.47
2019-05-05T19:24:46.972Z,97444.19
2019-05-05T19:27:25.644Z,97456.11
2019-05-05T19:32:59.986Z,97464.03
2019-05-05T19:35:45.060Z,97462.13
2019-05-05T19:38:18.725Z,97462.72
2019-05-05T19:40:56.195Z,97466.15
2019-05-05T19:43:31.025Z,97471.50
2019-05-05T19:46:10.693Z,97475.97
2019-05-05T19:48:44.662Z,97477.84
2019-05-05T19:51:40.412Z,97482.59
2019-05-05T19:54:20.981Z,97487.89
2019-05-05T19:56:57.506Z,97491.56
2019-05-05T19:59:36.628Z,97493.91
2019-05-05T20:02:18.328Z,97491.66
2019-05-05T20:04:57.994Z,97497.33
2019-05-05T20:07:35.086Z,97497.90
2019-05-05T20:10:14.633Z,97502.61
2019-05-05T20:12:54.444Z,97503.22
2019-05-05T20:15:36.123Z,97506.62
2019-05-05T20:18:10.891Z,97508.16
2019-05-05T20:20:46.118Z,97509.69
2019-05-05T20:23:24.264Z,97521.03
2019-05-05T20:25:59.173Z,97515.02
2019-05-05T20:28:36.847Z,97518.91
2019-05-05T20:31:10.804Z,97519.88
2019-05-05T20:33:59.584Z,97517.61
2019-05-05T20:36:35.547Z,97518.11
2019-05-05T20:39:10.018Z,97519.88
2019-05-05T20:41:44.574Z,97520.70
2019-05-05T20:44:19.770Z,97525.78
2019-05-05T20:46:54.470Z,97519.66
2019-05-05T20:49:29.586Z,97527.06
2019-05-05T20:52:04.207Z,97523.06
2019-05-05T20:54:40.525Z,97527.19
2019-05-05T20:57:15.966Z,97532.77
2019-05-05T20:59:53.937Z,97532.98
2019-05-05T21:02:29.963Z,97532.98
2019-05-05T21:05:05.694Z,97538.77
2019-05-05T21:07:44.210Z,97543.50
2019-05-05T21:10:19.990Z,97544.20
2019-05-05T21:12:55.721Z,97542.44
2019-05-05T21:15:30.559Z,97540.67
2019-05-05T21:18:05.387Z,97542.56
2019-05-05T21:20:39.510Z,97538.19
2019-05-05T21:23:19.544Z,97544.11
2019-05-05T21:26:19.701Z,97539.04
2019-05-05T21:28:54.567Z,97541.84
2019-05-05T21:31:30.091Z,97538.66
2019-05-05T21:34:05.613Z,97538.19
2019-05-05T21:36:41.796Z,97532.98
2019-05-05T21:39:17.679Z,97542.45
2019-05-05T21:41:56.390Z,97538.66
2019-05-05T21:44:34.238Z,97536.76
2019-05-05T21:47:07.692Z,97540.19
2019-05-05T21:49:43.901Z,97539.48
2019-05-05T21:52:26.598Z,97541.25
2019-05-05T21:55:23.963Z,97538.91
2019-05-05T21:58:08.523Z,97537.84
2019-05-05T22:01:05.935Z,97546.35
2019-05-05T22:03:40.630Z,97545.64
2019-05-05T22:06:15.406Z,97550.48
2019-05-05T22:08:50.170Z,97546.24
2019-05-05T22:11:24.946Z,97551.53
2019-05-05T22:14:04.355Z,97556.97
2019-05-05T22:16:38.757Z,97556.75
2019-05-05T22:19:14.622Z,97559.34
2019-05-05T22:21:56.434Z,97557.68
2019-05-05T22:24:30.426Z,97563.73
2019-05-05T22:27:04.736Z,97566.22
2019-05-05T22:29:39.540Z,97569.61
2019-05-05T22:32:14.526Z,97569.25
2019-05-05T22:34:51.943Z,97575.77
2019-05-05T22:37:26.023Z,97569.16
2019-05-05T22:40:00.396Z,97575.91
2019-05-05T22:42:36.857Z,97577.42
2019-05-05T22:45:10.910Z,97575.06
2019-05-05T22:47:50.739Z,97581.44
2019-05-05T22:50:26.261Z,97585.81
2019-05-05T22:53:01.669Z,97584.38
2019-05-05T22:56:28.420Z,97590.91
2019-05-05T22:59:04.311Z,97585.44
2019-05-05T23:01:39.767Z,97588.75
2019-05-05T23:04:34.963Z,97593.00
2019-05-05T23:07:18.984Z,97601.84
2019-05-05T23:09:53.986Z,97605.66
2019-05-05T23:12:28.132Z,97608.84
2019-05-05T23:15:04.037Z,97608.23
2019-05-05T23:17:56.991Z,97612.25
2019-05-05T23:21:15.610Z,97615.19
2019-05-05T23:24:09.622Z,97615.44
2019-05-05T23:26:44.610Z,97618.38
2019-05-05T23:29:18.536Z,97622.48
2019-05-05T23:31:53.812Z,97624.41
2019-05-05T23:34:27.730Z,97630.65
2019-05-05T23:37:01.767Z,97629.94
2019-05-05T23:39:36.645Z,97632.16
2019-05-05T23:42:10.616Z,97635.47
2019-05-05T23:44:44.642Z,97641.62
2019-05-05T23:47:18.494Z,97634.30
2019-05-05T23:49:53.901Z,97635.97
2019-05-05T23:52:28.043Z,97639.95
2019-05-05T23:55:03.905Z,97639.49
2019-05-05T23:57:37.882Z,97634.76
